createdAt,value
2018-09-08T00:00:44.331Z,89.86
2018-09-08T00:01:54.025Z,90.05
2018-09-08T00:03:03.984Z,89.86
2018-09-08T00:04:13.943Z,89.58
2018-09-08T00:05:23.652Z,89.48
2018-09-08T00:06:33.628Z,89.38
2018-09-08T00:07:43.583Z,89.67
2018-09-08T00:08:52.759Z,89.58
2018-09-08T00:10:02.730Z,89.38
2018-09-08T00:11:12.433Z,89.67
2018-09-08T00:12:22.127Z,89.24
2018-09-08T00:13:32.086Z,89.09
2018-09-08T00:14:42.048Z,88.9
2018-09-08T00:15:51.751Z,88.67
2018-09-08T00:17:01.468Z,88.9
2018-09-08T00:18:11.167Z,88.09
2018-09-08T00:19:20.875Z,87.33
2018-09-08T00:20:30.577Z,87.81
2018-09-08T00:21:40.530Z,87.04
2018-09-08T00:22:50.492Z,85.99
2018-09-08T00:24:00.456Z,86.08
2018-09-08T00:25:10.150Z,85.61
2018-09-08T00:26:20.120Z,85.41
2018-09-08T00:27:30.073Z,85.32
2018-09-08T00:28:40.039Z,85.71
2018-09-08T00:29:49.993Z,84.84
2018-09-08T00:30:59.742Z,84.65
2018-09-08T00:32:09.194Z,84.55
2018-09-08T00:33:18.898Z,84.17
2018-09-08T00:34:28.855Z,84.27
2018-09-08T00:35:38.826Z,84.17
2018-09-08T00:36:48.518Z,84.46
2018-09-08T00:37:58.477Z,84.75
2018-09-08T00:39:08.434Z,84.84
2018-09-08T00:40:18.402Z,85.22
2018-09-08T00:41:27.844Z,84.94
2018-09-08T00:42:37.812Z,84.55
2018-09-08T00:43:47.795Z,84.94
2018-09-08T00:44:57.498Z,85.41
2018-09-08T00:46:07.467Z,85.8
2018-09-08T00:47:17.431Z,85.66
2018-09-08T00:48:26.885Z,85.75
2018-09-08T00:49:36.586Z,85.75
2018-09-08T00:50:46.282Z,86.71
2018-09-08T00:51:55.972Z,86.43
2018-09-08T00:53:05.670Z,86.43
2018-09-08T00:54:15.375Z,86.43
2018-09-08T00:55:25.075Z,86.43
2018-09-08T00:56:35.050Z,86.33
2018-09-08T00:57:44.757Z,87
2018-09-08T00:58:54.715Z,86.52
2018-09-08T01:00:04.177Z,86.8
2018-09-08T01:01:14.143Z,86.33
2018-09-08T01:02:24.109Z,86.52
2018-09-08T01:03:34.085Z,87.09
2018-09-08T01:04:44.246Z,86.8
2018-09-08T01:05:54.460Z,86.33
2018-09-08T01:07:04.423Z,86.23
2018-09-08T01:08:14.383Z,87.09
2018-09-08T01:09:24.088Z,85.94
2018-09-08T01:10:34.058Z,86.04
2018-09-08T01:11:43.763Z,86.04
2018-09-08T01:12:53.742Z,86.8
2018-09-08T01:14:03.704Z,86.8
2018-09-08T01:15:13.408Z,86.61
2018-09-08T01:16:23.371Z,86.23
2018-09-08T01:17:33.084Z,86.8
2018-09-08T01:18:43.037Z,86.33
2018-09-08T01:19:53.000Z,86.04
2018-09-08T01:21:02.960Z,85.94
2018-09-08T01:22:12.414Z,86.8
2018-09-08T01:23:22.379Z,87
2018-09-08T01:24:32.346Z,86.8
2018-09-08T01:25:42.054Z,86.71
2018-09-08T01:26:52.013Z,87.09
2018-09-08T01:28:01.977Z,87
2018-09-08T01:29:11.416Z,87
2018-09-08T01:30:21.365Z,87.38
2018-09-08T01:31:31.330Z,87.34
2018-09-08T01:32:41.314Z,87.38
2018-09-08T01:33:51.269Z,88.01
2018-09-08T01:35:00.713Z,87.82
2018-09-08T01:36:10.730Z,87.05
2018-09-08T01:37:20.691Z,87.91
2018-09-08T01:38:30.643Z,87.62
2018-09-08T01:39:40.344Z,88.1
2018-09-08T01:40:50.051Z,87.34
2018-09-08T01:41:59.787Z,88.01
2018-09-08T01:43:09.748Z,87.82
2018-09-08T01:44:19.447Z,87.53
2018-09-08T01:45:28.897Z,87.15
2018-09-08T01:46:38.853Z,87.72
2018-09-08T01:47:48.553Z,87.62
2018-09-08T01:48:58.267Z,87.43
2018-09-08T01:50:08.241Z,87.91
2018-09-08T01:51:17.683Z,87.24
2018-09-08T01:52:27.695Z,87.62
2018-09-08T01:53:37.408Z,88.1
2018-09-08T01:54:46.857Z,87.82
2018-09-08T01:55:56.810Z,87.43
2018-09-08T01:57:05.994Z,87.43
2018-09-08T01:58:15.964Z,87.82
2018-09-08T01:59:25.408Z,87.82
2018-09-08T02:00:35.377Z,88.01
2018-09-08T02:01:45.335Z,87.43
2018-09-08T02:02:55.300Z,87.05
2018-09-08T02:04:05.270Z,86.96
2018-09-08T02:05:15.240Z,87.62
2018-09-08T02:06:25.218Z,87.53
2018-09-08T02:07:34.922Z,87.05
2018-09-08T02:08:44.622Z,86.86
2018-09-08T02:09:54.060Z,86.19
2018-09-08T02:11:03.764Z,86.76
2018-09-08T02:12:13.462Z,86.29
2018-09-08T02:13:23.180Z,86.57
2018-09-08T02:14:33.148Z,86
2018-09-08T02:15:43.106Z,85.62
2018-09-08T02:16:53.057Z,86.29
2018-09-08T02:18:03.012Z,85.33
2018-09-08T02:19:12.454Z,85.9
2018-09-08T02:20:22.411Z,85.62
2018-09-08T02:21:32.363Z,85.57
2018-09-08T02:22:42.329Z,85.18
2018-09-08T02:23:52.300Z,84.89
2018-09-08T02:25:02.258Z,84.99
2018-09-08T02:26:11.700Z,85.18
2018-09-08T02:27:21.671Z,84.89
2018-09-08T02:28:31.375Z,84.23
2018-09-08T02:29:41.083Z,84.52
2018-09-08T02:30:51.060Z,84.23
2018-09-08T02:32:00.764Z,83.94
2018-09-08T02:33:10.464Z,83.75
2018-09-08T02:34:20.171Z,83.56
2018-09-08T02:35:30.145Z,84.23
2018-09-08T02:36:40.111Z,84.23
2018-09-08T02:37:50.079Z,83.75
2018-09-08T02:38:59.786Z,84.13
2018-09-08T02:40:09.481Z,83.65
2018-09-08T02:41:19.443Z,84.03
2018-09-08T02:42:29.407Z,84.03
2018-09-08T02:43:39.379Z,83.84
2018-09-08T02:44:49.344Z,84.03
2018-09-08T02:45:59.318Z,84.13
2018-09-08T02:47:09.281Z,84.23
2018-09-08T02:48:19.240Z,84.61
2018-09-08T02:49:29.193Z,84.42
2018-09-08T02:50:39.152Z,84.52
2018-09-08T02:51:48.855Z,84.52
2018-09-08T02:52:58.813Z,84.61
2018-09-08T02:54:08.244Z,84.32
2018-09-08T02:55:18.205Z,84.61
2018-09-08T02:56:27.915Z,84.89
2018-09-08T02:57:37.891Z,85.38
2018-09-08T02:58:47.843Z,85.47
2018-09-08T02:59:57.830Z,85.66
2018-09-08T03:01:07.266Z,85.66
2018-09-08T03:02:16.965Z,85.66
2018-09-08T03:03:26.922Z,86.52
2018-09-08T03:04:36.622Z,86.9
2018-09-08T03:05:46.579Z,87.38
2018-09-08T03:06:56.281Z,88.05
2018-09-08T03:08:06.248Z,87.76
2018-09-08T03:09:15.954Z,88.43
2018-09-08T03:10:25.646Z,88.48
2018-09-08T03:11:35.354Z,88.68
2018-09-08T03:12:45.314Z,89.15
2018-09-08T03:13:55.268Z,89.06
2018-09-08T03:15:05.268Z,89.25
2018-09-08T03:16:14.965Z,89.44
2018-09-08T03:17:24.941Z,89.34
2018-09-08T03:18:34.912Z,89.82
2018-09-08T03:19:44.868Z,89.63
2018-09-08T03:20:54.816Z,89.92
2018-09-08T03:22:04.518Z,90.01
2018-09-08T03:23:14.208Z,89.63
2018-09-08T03:24:24.169Z,89.82
2018-09-08T03:25:34.135Z,90.2
2018-09-08T03:26:44.090Z,90.2
2018-09-08T03:27:53.786Z,90.88
2018-09-08T03:29:03.477Z,90.88
2018-09-08T03:30:13.180Z,90.68
2018-09-08T03:31:23.148Z,90.88
2018-09-08T03:32:33.100Z,90.49
2018-09-08T03:33:42.815Z,91.06
2018-09-08T03:34:52.815Z,91.25
2018-09-08T03:36:02.815Z,91.21
2018-09-08T03:37:12.265Z,91.83
2018-09-08T03:38:22.216Z,91.74
2018-09-08T03:39:31.902Z,91.78
2018-09-08T03:40:41.871Z,91.78
2018-09-08T03:41:51.047Z,92.83
2018-09-08T03:43:00.747Z,92.83
2018-09-08T03:44:10.714Z,92.64
2018-09-08T03:45:20.680Z,92.74
2018-09-08T03:46:30.386Z,93.31
2018-09-08T03:47:39.829Z,92.83
2018-09-08T03:48:49.553Z,93.12
2018-09-08T03:49:59.506Z,93.41
2018-09-08T03:51:08.946Z,93.6
2018-09-08T03:52:18.895Z,94.46
2018-09-08T03:53:28.900Z,94.55
2018-09-08T03:54:38.858Z,94.55
2018-09-08T03:55:48.553Z,94.84
2018-09-08T03:56:58.259Z,95.32
2018-09-08T03:58:08.214Z,95.75
2018-09-08T03:59:17.654Z,95.17
2018-09-08T04:00:27.631Z,95.84
2018-09-08T04:01:37.586Z,96.51
2018-09-08T04:02:47.268Z,95.94
2018-09-08T04:03:57.225Z,95.94
2018-09-08T04:05:07.180Z,95.65
2018-09-08T04:06:16.883Z,95.36
2018-09-08T04:07:26.593Z,95.17
2018-09-08T04:08:36.542Z,95.17
2018-09-08T04:09:46.234Z,95.94
2018-09-08T04:10:56.258Z,95.94
2018-09-08T04:12:06.241Z,96.03
2018-09-08T04:13:15.947Z,96.03
2018-09-08T04:14:25.650Z,96.13
2018-09-08T04:15:35.096Z,96.32
2018-09-08T04:16:44.811Z,96.32
2018-09-08T04:17:54.522Z,96.22
2018-09-08T04:19:04.522Z,96.98
2018-09-08T04:20:14.228Z,96.03
2018-09-08T04:21:24.186Z,96.89
2018-09-08T04:22:34.155Z,96.89
2018-09-08T04:23:43.871Z,96.8
2018-09-08T04:24:53.834Z,96.7
2018-09-08T04:26:03.792Z,97.27
2018-09-08T04:27:13.494Z,97.47
2018-09-08T04:28:23.449Z,97.66
2018-09-08T04:29:33.572Z,97.27
2018-09-08T04:30:43.811Z,97.47
2018-09-08T04:31:53.514Z,97.27
2018-09-08T04:33:03.227Z,97.66
2018-09-08T04:34:12.926Z,98.03
2018-09-08T04:35:22.903Z,98.03
2018-09-08T04:36:32.887Z,98.61
2018-09-08T04:37:42.845Z,98.18
2018-09-08T04:38:52.812Z,98.9
2018-09-08T04:40:02.769Z,98.56
2018-09-08T04:41:12.738Z,98.8
2018-09-08T04:42:22.182Z,98.61
2018-09-08T04:43:32.131Z,98.56
2018-09-08T04:44:42.095Z,98.66
2018-09-08T04:45:52.057Z,98.66
2018-09-08T04:47:02.031Z,98.75
2018-09-08T04:48:11.994Z,98.75
2018-09-08T04:49:21.820Z,98.75
2018-09-08T04:50:31.419Z,99.04
2018-09-08T04:51:41.382Z,99.61
2018-09-08T04:52:51.365Z,99.61
2018-09-08T04:54:01.320Z,99.32
2018-09-08T04:55:11.300Z,98.9
2018-09-08T04:56:20.789Z,99.52
2018-09-08T04:57:30.485Z,99.13
2018-09-08T04:58:40.446Z,99.32
2018-09-08T04:59:50.452Z,99.42
2018-09-08T05:01:00.428Z,99.42
2018-09-08T05:02:10.390Z,99.61
2018-09-08T05:03:20.122Z,98.56
2018-09-08T05:04:30.083Z,98.75
2018-09-08T05:05:40.058Z,98.99
2018-09-08T05:06:50.039Z,98.61
2018-09-08T05:07:59.748Z,98.71
2018-09-08T05:09:09.938Z,98.61
2018-09-08T05:10:19.703Z,98.71
2018-09-08T05:11:29.669Z,98.66
2018-09-08T05:12:39.375Z,98.75
2018-09-08T05:13:49.345Z,98.56
2018-09-08T05:14:59.317Z,98.71
2018-09-08T05:16:09.293Z,98.37
2018-09-08T05:17:19.588Z,98.42
2018-09-08T05:18:29.600Z,98.56
2018-09-08T05:19:39.564Z,98.75
2018-09-08T05:20:49.276Z,98.9
2018-09-08T05:21:58.993Z,98.71
2018-09-08T05:23:08.944Z,98.47
2018-09-08T05:24:18.650Z,99.18
2018-09-08T05:25:28.607Z,98.99
2018-09-08T05:26:38.325Z,98.8
2018-09-08T05:27:48.282Z,98.8
2018-09-08T05:28:58.258Z,98.8
2018-09-08T05:30:08.220Z,98.99
2018-09-08T05:31:17.940Z,98.9
2018-09-08T05:32:27.890Z,98.61
2018-09-08T05:33:37.589Z,98.61
2018-09-08T05:34:47.548Z,98.71
2018-09-08T05:35:57.615Z,98.03
2018-09-08T05:37:07.567Z,98.03
2018-09-08T05:38:17.546Z,97.94
2018-09-08T05:39:27.261Z,97.75
2018-09-08T05:40:37.251Z,97.94
2018-09-08T05:41:47.002Z,97.37
2018-09-08T05:42:56.477Z,97.85
2018-09-08T05:44:06.733Z,97.75
2018-09-08T05:45:16.693Z,97.75
2018-09-08T05:46:26.667Z,98.03
2018-09-08T05:47:36.428Z,97.94
2018-09-08T05:48:45.981Z,97.75
2018-09-08T05:49:56.333Z,97.56
2018-09-08T05:51:06.321Z,97.56
2018-09-08T05:52:16.090Z,96.8
2018-09-08T05:53:26.135Z,97.08
2018-09-08T05:54:36.095Z,96.51
2018-09-08T05:55:45.808Z,96.61
2018-09-08T05:56:55.508Z,98.13
2018-09-08T05:58:05.486Z,96.89
2018-09-08T05:59:15.188Z,97.08
2018-09-08T06:00:24.876Z,95.84
2018-09-08T06:01:34.567Z,96.98
2018-09-08T06:02:43.755Z,97.56
2018-09-08T06:03:53.734Z,97.75
2018-09-08T06:05:03.721Z,97.85
2018-09-08T06:06:13.445Z,98.13
2018-09-08T06:07:23.212Z,98.71
2018-09-08T06:08:32.662Z,98.32
2018-09-08T06:09:42.361Z,98.8
2018-09-08T06:10:51.819Z,98.8
2018-09-08T06:12:01.774Z,98.52
2018-09-08T06:13:11.744Z,99.99
2018-09-08T06:14:21.730Z,99.99
2018-09-08T06:15:31.477Z,99.99
2018-09-08T06:16:41.443Z,99.99
2018-09-08T06:17:51.456Z,99.99
2018-09-08T06:19:01.419Z,99.95
2018-09-08T06:20:11.390Z,99.99
2018-09-08T06:21:21.381Z,99.99
2018-09-08T06:22:31.341Z,99.99
2018-09-08T06:23:41.347Z,99.57
2018-09-08T06:24:51.303Z,99.66
2018-09-08T06:26:01.259Z,98.42
2018-09-08T06:27:10.961Z,99.57
2018-09-08T06:28:21.026Z,99.43
2018-09-08T06:29:31.364Z,99.52
2018-09-08T06:30:41.327Z,98.94
2018-09-08T06:31:51.464Z,98.37
2018-09-08T06:33:01.401Z,98.08
2018-09-08T06:34:11.370Z,97.99
2018-09-08T06:35:21.583Z,97.89
2018-09-08T06:36:31.948Z,98.37
2018-09-08T06:37:41.940Z,96.17
2018-09-08T06:38:51.929Z,93.55
2018-09-08T06:40:01.646Z,94.22
2018-09-08T06:41:11.597Z,93.07
2018-09-08T06:42:21.619Z,93.07
2018-09-08T06:43:31.588Z,93.55
2018-09-08T06:44:41.597Z,93.16
2018-09-08T06:45:51.508Z,92.59
2018-09-08T06:47:01.465Z,91.16
2018-09-08T06:48:11.199Z,91.25
2018-09-08T06:49:21.169Z,90.97
2018-09-08T06:50:30.883Z,89.25
2018-09-08T06:51:40.585Z,89.48
2018-09-08T06:52:50.546Z,87.09
2018-09-08T06:54:00.251Z,84.7
2018-09-08T06:55:09.953Z,85.75
2018-09-08T06:56:19.920Z,86.61
2018-09-08T06:57:29.872Z,85.38
2018-09-08T06:58:39.837Z,84.61
2018-09-08T06:59:49.798Z,82.79
2018-09-08T07:00:59.755Z,81.4
2018-09-08T07:02:09.736Z,81.49
2018-09-08T07:03:19.785Z,77.95
2018-09-08T07:04:30.197Z,78.72
2018-09-08T07:05:40.163Z,78.34
2018-09-08T07:06:50.136Z,76.62
2018-09-08T07:08:00.107Z,77.19
2018-09-08T07:09:09.832Z,76.33
2018-09-08T07:10:19.788Z,75.7
2018-09-08T07:11:29.749Z,76.18
2018-09-08T07:12:39.456Z,75.51
2018-09-08T07:13:49.427Z,75.51
2018-09-08T07:14:59.441Z,74.65
2018-09-08T07:16:09.330Z,73.79
2018-09-08T07:17:19.295Z,73.3
2018-09-08T07:18:29.261Z,74.07
2018-09-08T07:19:39.247Z,74.07
2018-09-08T07:20:49.216Z,73.59
2018-09-08T07:21:58.919Z,73.97
2018-09-08T07:23:08.910Z,74.16
2018-09-08T07:24:18.876Z,73.97
2018-09-08T07:25:28.853Z,73.79
2018-09-08T07:26:38.584Z,74.45
2018-09-08T07:27:48.567Z,74.74
2018-09-08T07:28:58.521Z,74.74
2018-09-08T07:30:08.501Z,73.79
2018-09-08T07:31:17.945Z,74.07
2018-09-08T07:32:27.382Z,73.44
2018-09-08T07:33:37.403Z,71.14
2018-09-08T07:34:47.373Z,72.38
2018-09-08T07:35:57.327Z,72.09
2018-09-08T07:37:07.286Z,72.67
2018-09-08T07:38:17.337Z,72.86
2018-09-08T07:39:27.299Z,72.86
2018-09-08T07:40:37.274Z,72.86
2018-09-08T07:41:47.257Z,72.09
2018-09-08T07:42:56.993Z,72.48
2018-09-08T07:44:06.948Z,71.33
2018-09-08T07:45:16.396Z,69.07
2018-09-08T07:46:26.368Z,68.27
2018-09-08T07:47:36.079Z,69.07
2018-09-08T07:48:46.035Z,69.17
2018-09-08T07:49:55.484Z,69.35
2018-09-08T07:51:05.470Z,68.21
2018-09-08T07:52:15.464Z,68.97
2018-09-08T07:53:25.696Z,67.05
2018-09-08T07:54:36.196Z,67.44
2018-09-08T07:55:46.174Z,66.67
2018-09-08T07:56:56.166Z,65.91
2018-09-08T07:58:05.894Z,66.19
2018-09-08T07:59:15.928Z,65.91
2018-09-08T08:00:25.804Z,65.81
2018-09-08T08:01:35.502Z,65.55
2018-09-08T08:02:45.481Z,64.02
2018-09-08T08:03:55.199Z,64.89
2018-09-08T08:05:05.163Z,64.5
2018-09-08T08:06:14.892Z,64.22
2018-09-08T08:07:24.851Z,64.59
2018-09-08T08:08:34.832Z,64.22
2018-09-08T08:09:44.829Z,62.87
2018-09-08T08:10:54.795Z,63.16
2018-09-08T08:12:04.773Z,63.35
2018-09-08T08:13:14.746Z,62.77
2018-09-08T08:14:24.742Z,62.59
2018-09-08T08:15:34.998Z,62.59
2018-09-08T08:16:44.705Z,62.49
2018-09-08T08:17:54.416Z,61.46
2018-09-08T08:19:03.880Z,61.37
2018-09-08T08:20:13.876Z,60.22
2018-09-08T08:21:23.826Z,58.97
2018-09-08T08:22:33.791Z,58.01
2018-09-08T08:23:43.762Z,57.75
2018-09-08T08:24:53.753Z,57.56
2018-09-08T08:26:03.486Z,56.7
2018-09-08T08:27:13.457Z,56.79
2018-09-08T08:28:23.168Z,55.67
2018-09-08T08:29:32.645Z,54.9
2018-09-08T08:30:42.095Z,53.94
2018-09-08T08:31:52.074Z,54.13
2018-09-08T08:33:02.051Z,53.39
2018-09-08T08:34:12.039Z,51.95
2018-09-08T08:35:22.018Z,52.14
2018-09-08T08:36:31.979Z,52.14
2018-09-08T08:37:41.948Z,51.09
2018-09-08T08:38:51.934Z,51.57
2018-09-08T08:40:01.387Z,51.47
2018-09-08T08:41:11.358Z,50.9
2018-09-08T08:42:21.077Z,50.61
2018-09-08T08:43:31.055Z,50.7
2018-09-08T08:44:41.037Z,50.03
2018-09-08T08:45:51.016Z,49.17
2018-09-08T08:47:00.726Z,49.19
2018-09-08T08:48:10.705Z,49.19
2018-09-08T08:49:20.684Z,48.9
2018-09-08T08:50:30.674Z,49.38
2018-09-08T08:51:40.392Z,49.38
2018-09-08T08:52:50.370Z,49.48
2018-09-08T08:54:00.344Z,48.83
2018-09-08T08:55:10.307Z,49
2018-09-08T08:56:20.004Z,49.6
2018-09-08T08:57:29.972Z,48.93
2018-09-08T08:58:39.687Z,48.93
2018-09-08T08:59:49.670Z,49.12
2018-09-08T09:00:59.632Z,48.83
2018-09-08T09:02:09.607Z,48.64
2018-09-08T09:03:19.588Z,48.45
2018-09-08T09:04:29.301Z,48.64
2018-09-08T09:05:39.012Z,49.51
2018-09-08T09:06:48.997Z,49.77
2018-09-08T09:08:00.092Z,49.96
2018-09-08T09:09:10.105Z,49.38
2018-09-08T09:10:20.080Z,49.31
2018-09-08T09:11:30.059Z,49.31
2018-09-08T09:12:41.487Z,49.22
2018-09-08T09:13:51.638Z,49.6
2018-09-08T09:15:01.732Z,49.22
2018-09-08T09:16:12.287Z,49.79
2018-09-08T09:17:22.248Z,49.12
2018-09-08T09:18:33.229Z,49.24
2018-09-08T09:19:44.608Z,48.93
2018-09-08T09:20:54.340Z,49.22
2018-09-08T09:22:04.359Z,48.83
2018-09-08T09:23:14.426Z,49.24
2018-09-08T09:24:27.261Z,49.24
2018-09-08T09:25:38.137Z,48.66
2018-09-08T09:26:47.850Z,48.18
2018-09-08T09:27:57.826Z,48.02
2018-09-08T09:29:07.809Z,47.44
2018-09-08T09:30:17.802Z,48.21
2018-09-08T09:31:27.781Z,48.59
2018-09-08T09:32:37.767Z,48.28
2018-09-08T09:33:47.774Z,48.66
2018-09-08T09:34:57.740Z,48.57
2018-09-08T09:36:07.472Z,49.24
2018-09-08T09:37:17.318Z,48.95
2018-09-08T09:38:27.214Z,49.53
2018-09-08T09:39:37.179Z,48.66
2018-09-08T09:40:47.172Z,48.69
2018-09-08T09:41:56.873Z,47.82
2018-09-08T09:43:06.862Z,47.08
2018-09-08T09:44:16.688Z,46.81
2018-09-08T09:45:27.025Z,46.42
2018-09-08T09:46:36.742Z,46.42
2018-09-08T09:47:46.726Z,46.52
2018-09-08T09:48:56.714Z,47
2018-09-08T09:50:06.434Z,46.71
2018-09-08T09:51:16.148Z,46.52
2018-09-08T09:52:26.107Z,46.52
2018-09-08T09:53:36.064Z,46.25
2018-09-08T09:54:46.019Z,46.52
2018-09-08T09:55:55.731Z,46.42
2018-09-08T09:57:05.701Z,45.87
2018-09-08T09:58:15.683Z,46.25
2018-09-08T09:59:25.648Z,45.58
2018-09-08T10:00:35.648Z,46.45
2018-09-08T10:01:45.615Z,46.14
2018-09-08T10:02:55.592Z,45.39
2018-09-08T10:04:05.560Z,45.29
2018-09-08T10:05:15.569Z,45.29
2018-09-08T10:06:25.682Z,45.87
2018-09-08T10:07:35.935Z,45.39
2018-09-08T10:08:45.651Z,45.77
2018-09-08T10:09:55.373Z,45.87
2018-09-08T10:11:05.101Z,46.06
2018-09-08T10:12:14.987Z,46.06
2018-09-08T10:13:24.977Z,45.29
2018-09-08T10:14:34.688Z,45.04
2018-09-08T10:15:44.399Z,45.04
2018-09-08T10:16:54.124Z,45.14
2018-09-08T10:18:04.112Z,44.37
2018-09-08T10:19:14.079Z,45.04
2018-09-08T10:20:24.077Z,45.51
2018-09-08T10:21:33.797Z,45.51
2018-09-08T10:22:43.510Z,45.04
2018-09-08T10:24:07.225Z,44.27
2018-09-08T10:25:17.209Z,44.56
2018-09-08T10:26:27.040Z,44.29
2018-09-08T10:27:37.044Z,43.62
2018-09-08T10:28:47.035Z,43.74
2018-09-08T10:29:56.935Z,42.68
2018-09-08T10:31:08.575Z,42.29
2018-09-08T10:32:18.712Z,42.46
2018-09-08T10:33:28.594Z,42.56
2018-09-08T10:34:38.409Z,41.71
2018-09-08T10:35:48.642Z,42.18
2018-09-08T10:36:58.353Z,43.33
2018-09-08T10:38:08.064Z,44.2
2018-09-08T10:39:17.779Z,44.1
2018-09-08T10:40:28.054Z,43.43
2018-09-08T10:41:38.085Z,43.43
2018-09-08T10:42:48.058Z,43.81
2018-09-08T10:43:57.791Z,42.68
2018-09-08T10:45:07.772Z,42.68
2018-09-08T10:46:17.743Z,43.54
2018-09-08T10:47:27.723Z,43.52
2018-09-08T10:48:37.439Z,42.75
2018-09-08T10:49:47.161Z,42.75
2018-09-08T10:50:57.248Z,42.29
2018-09-08T10:52:07.713Z,41.35
2018-09-08T10:53:17.680Z,41.15
2018-09-08T10:54:27.389Z,41.05
2018-09-08T10:55:37.379Z,41.52
2018-09-08T10:56:47.365Z,41.91
2018-09-08T10:57:56.826Z,42.1
2018-09-08T10:59:06.564Z,41.71
2018-09-08T11:00:16.540Z,42
2018-09-08T11:01:26.374Z,42
2018-09-08T11:02:37.773Z,41.81
2018-09-08T11:03:49.144Z,41.63
2018-09-08T11:04:59.134Z,42.12
2018-09-08T11:06:09.120Z,42
2018-09-08T11:07:19.091Z,42.58
2018-09-08T11:08:29.079Z,42.56
2018-09-08T11:09:39.066Z,42.08
2018-09-08T11:10:49.040Z,42.1
2018-09-08T11:11:58.776Z,42.29
2018-09-08T11:13:08.501Z,40.86
2018-09-08T11:14:18.481Z,41.25
2018-09-08T11:15:28.566Z,41.54
2018-09-08T11:16:38.625Z,41.73
2018-09-08T11:17:48.095Z,41.25
2018-09-08T11:18:58.180Z,41.25
2018-09-08T11:20:07.909Z,42
2018-09-08T11:21:17.661Z,42.48
2018-09-08T11:22:27.645Z,42.94
2018-09-08T11:23:37.395Z,43.52
2018-09-08T11:24:47.362Z,44.1
2018-09-08T11:25:57.339Z,44.37
2018-09-08T11:27:07.325Z,44.27
2018-09-08T11:28:17.282Z,43.43
2018-09-08T11:29:27.247Z,43.24
2018-09-08T11:30:37.402Z,42.19
2018-09-08T11:31:47.900Z,41.54
2018-09-08T11:32:57.888Z,41.44
2018-09-08T11:34:07.872Z,40.4
2018-09-08T11:35:17.857Z,40.47
2018-09-08T11:36:27.574Z,40.09
2018-09-08T11:37:37.570Z,40.86
2018-09-08T11:38:47.552Z,41.63
2018-09-08T11:39:57.276Z,41.71
2018-09-08T11:41:06.994Z,42.29
2018-09-08T11:42:16.960Z,42.08
2018-09-08T11:43:26.673Z,42.36
2018-09-08T11:44:36.409Z,42
2018-09-08T11:45:45.901Z,41.93
2018-09-08T11:46:55.890Z,42.02
2018-09-08T11:48:05.873Z,41.91
2018-09-08T11:49:15.603Z,41.71
2018-09-08T11:50:25.653Z,42.1
2018-09-08T11:51:35.372Z,42.27
2018-09-08T11:52:44.580Z,43.14
2018-09-08T11:53:54.672Z,43.5
2018-09-08T11:55:04.652Z,43.79
2018-09-08T11:56:14.623Z,43.7
2018-09-08T11:57:24.611Z,43.89
2018-09-08T11:58:34.327Z,44.37
2018-09-08T11:59:44.470Z,44.37
2018-09-08T12:00:54.525Z,44.64
2018-09-08T12:02:04.357Z,44.83
2018-09-08T12:03:14.881Z,44.93
2018-09-08T12:04:24.605Z,44.54
2018-09-08T12:05:34.592Z,44.54
2018-09-08T12:06:44.312Z,42.63
2018-09-08T12:07:54.356Z,43.31
2018-09-08T12:09:04.206Z,44.18
2018-09-08T12:10:14.175Z,45.21
2018-09-08T12:11:23.888Z,44.9
2018-09-08T12:12:33.863Z,45.29
2018-09-08T12:13:43.839Z,44.9
2018-09-08T12:14:53.636Z,45
2018-09-08T12:16:03.619Z,45.39
2018-09-08T12:17:13.336Z,46.45
2018-09-08T12:18:23.320Z,46.15
2018-09-08T12:19:33.290Z,45.75
2018-09-08T12:20:43.256Z,45.58
2018-09-08T12:21:53.233Z,45.48
2018-09-08T12:23:03.244Z,44.93
2018-09-08T12:24:13.217Z,45.03
2018-09-08T12:25:23.197Z,45.03
2018-09-08T12:26:33.194Z,44.93
2018-09-08T12:27:43.168Z,44.9
2018-09-08T12:28:53.163Z,45.39
2018-09-08T12:30:03.137Z,45.29
2018-09-08T12:31:13.127Z,44.25
2018-09-08T12:32:23.149Z,44.25
2018-09-08T12:33:33.069Z,43.77
2018-09-08T12:34:42.787Z,43.38
2018-09-08T12:35:52.770Z,43.7
2018-09-08T12:37:02.764Z,43.7
2018-09-08T12:38:12.997Z,43.98
2018-09-08T12:39:22.980Z,44.37
2018-09-08T12:40:32.967Z,44.08
2018-09-08T12:41:42.941Z,44.46
2018-09-08T12:42:52.929Z,44.27
2018-09-08T12:44:02.901Z,44.54
2018-09-08T12:45:12.887Z,44.64
2018-09-08T12:46:22.618Z,44.25
2018-09-08T12:47:32.609Z,44.25
2018-09-08T12:48:42.593Z,43.48
2018-09-08T12:49:52.564Z,43.21
2018-09-08T12:51:02.594Z,42.66
2018-09-08T12:52:12.573Z,41.78
2018-09-08T12:53:22.440Z,41.23
2018-09-08T12:54:32.228Z,41.15
2018-09-08T12:55:42.214Z,41.93
2018-09-08T12:56:51.980Z,42
2018-09-08T12:58:01.946Z,42.19
2018-09-08T12:59:12.148Z,42.36
2018-09-08T13:00:22.422Z,41.98
2018-09-08T13:01:32.395Z,41.71
2018-09-08T13:02:42.118Z,40.77
2018-09-08T13:03:52.100Z,40.11
2018-09-08T13:05:01.817Z,39.45
2018-09-08T13:06:11.264Z,39.45
2018-09-08T13:07:21.242Z,39.74
2018-09-08T13:08:31.218Z,39.36
2018-09-08T13:09:41.189Z,38.41
2018-09-08T13:10:50.639Z,37.82
2018-09-08T13:12:00.353Z,36.32
2018-09-08T13:13:10.344Z,35.83
2018-09-08T13:14:20.559Z,35.85
2018-09-08T13:15:30.451Z,36.24
2018-09-08T13:16:39.904Z,34.97
2018-09-08T13:17:49.624Z,35.19
2018-09-08T13:18:59.645Z,34.51
2018-09-08T13:20:09.107Z,34.04
2018-09-08T13:21:19.079Z,33.86
2018-09-08T13:22:29.056Z,33.84
2018-09-08T13:23:39.027Z,34.53
2018-09-08T13:24:49.015Z,34.41
2018-09-08T13:25:59.061Z,34.41
2018-09-08T13:27:09.050Z,34.31
2018-09-08T13:28:19.038Z,34.33
2018-09-08T13:29:29.023Z,34.43
2018-09-08T13:30:38.551Z,34.61
2018-09-08T13:31:48.534Z,35.56
2018-09-08T13:32:58.511Z,35.36
2018-09-08T13:34:08.495Z,35.56
2018-09-08T13:35:18.471Z,35.83
2018-09-08T13:36:27.953Z,35.64
2018-09-08T13:37:37.942Z,35.56
2018-09-08T13:38:47.664Z,35.27
2018-09-08T13:39:57.590Z,34.59
2018-09-08T13:41:07.478Z,34.33
2018-09-08T13:42:17.447Z,33.11
2018-09-08T13:43:27.175Z,31.85
2018-09-08T13:44:37.165Z,30.33
2018-09-08T13:45:46.883Z,30.64
2018-09-08T13:46:57.057Z,29.88
2018-09-08T13:48:07.179Z,29.69
2018-09-08T13:49:17.147Z,29.6
2018-09-08T13:50:27.166Z,29.79
2018-09-08T13:51:37.141Z,29.97
2018-09-08T13:52:47.203Z,30.82
2018-09-08T13:53:57.628Z,31.38
2018-09-08T13:55:07.353Z,32.04
2018-09-08T13:56:17.347Z,32.5
2018-09-08T13:57:27.088Z,32.31
2018-09-08T13:58:37.080Z,32.23
2018-09-08T13:59:47.070Z,32.79
2018-09-08T14:00:56.820Z,33.38
2018-09-08T14:02:06.822Z,33.65
2018-09-08T14:03:16.812Z,33.26
2018-09-08T14:04:26.545Z,32.97
2018-09-08T14:05:36.536Z,33.36
2018-09-08T14:06:46.268Z,34.02
2018-09-08T14:07:56.250Z,34.7
2018-09-08T14:09:06.286Z,34.31
2018-09-08T14:10:16.014Z,34.12
2018-09-08T14:11:25.739Z,33.36
2018-09-08T14:12:35.721Z,33.46
2018-09-08T14:13:45.441Z,33.26
2018-09-08T14:14:55.417Z,32.79
2018-09-08T14:16:04.864Z,32.99
2018-09-08T14:17:14.580Z,33.36
2018-09-08T14:18:24.586Z,33.54
2018-09-08T14:19:34.546Z,33.34
2018-09-08T14:20:44.526Z,33.44
2018-09-08T14:21:54.534Z,33.25
2018-09-08T14:23:04.508Z,33.44
2018-09-08T14:24:14.500Z,33.34
2018-09-08T14:25:24.234Z,33.26
2018-09-08T14:26:34.229Z,32.99
2018-09-08T14:27:43.958Z,34.02
2018-09-08T14:28:53.948Z,34.3
2018-09-08T14:30:03.932Z,34.22
2018-09-08T14:31:13.654Z,34.22
2018-09-08T14:32:23.635Z,34.61
2018-09-08T14:33:33.622Z,35.56
2018-09-08T14:34:43.608Z,36.22
2018-09-08T14:35:53.584Z,36.58
2018-09-08T14:37:03.573Z,36.2
2018-09-08T14:38:13.559Z,35.52
2018-09-08T14:39:23.272Z,36.12
2018-09-08T14:40:33.252Z,35.83
2018-09-08T14:41:42.966Z,36.49
2018-09-08T14:42:52.959Z,36.86
2018-09-08T14:44:02.940Z,36.76
2018-09-08T14:45:12.920Z,36.4
2018-09-08T14:46:22.978Z,36.41
2018-09-08T14:47:33.156Z,36.4
2018-09-08T14:48:43.277Z,36.98
2018-09-08T14:49:53.253Z,36.1
2018-09-08T14:51:03.213Z,36.22
2018-09-08T14:52:13.186Z,35.54
2018-09-08T14:53:22.930Z,34.49
2018-09-08T14:54:32.911Z,34.51
2018-09-08T14:55:42.889Z,34.8
2018-09-08T14:56:53.051Z,34.61
2018-09-08T14:58:02.688Z,34.23
2018-09-08T14:59:12.391Z,33.07
2018-09-08T15:00:22.111Z,32.7
2018-09-08T15:01:32.098Z,31.94
2018-09-08T15:02:41.830Z,32.31
2018-09-08T15:03:51.801Z,32.5
2018-09-08T15:05:01.955Z,32.1